Time;durP1;ratioP1;P1;durP2;ratioP2;P2;SDS_P1;SDS_P2;PMS_P1;PMS_P2;Temp;Humidity;BMP_temperature;BMP_pressure;BME280_temperature;BME280_humidity;BME280_pressure;Samples;Min_cycle;Max_cycle;Signal;HPM_P1;HPM_P2
2023/06/07 00:01:05;;;;;;;;;;;19.40;41.70;;;15.43;67.93;95486.63;5025340;28;19909;-50
2023/06/07 00:03:32;;;;;;;;;;;19.30;41.80;;;15.37;68.53;95487.00;5045990;28;19912;-51
2023/06/07 00:06:00;;;;;;;;;;;19.30;41.90;;;15.33;68.90;95489.50;5029808;28;20477;-51
2023/06/07 00:08:30;;;;;;;;;;;19.20;41.90;;;15.26;69.38;95479.16;5041348;28;20011;-49
2023/06/07 00:10:57;;;;;;;;;;;19.20;42.10;;;15.22;69.66;95488.88;5026013;28;19908;-50
2023/06/07 00:13:23;;;;;;;;;;;19.10;42.10;;;15.15;70.44;95485.78;5031321;28;19912;-52
2023/06/07 00:15:48;;;;;;;;;;;19.10;42.20;;;15.11;70.62;95479.44;5031705;28;19912;-52
2023/06/07 00:18:15;;;;;;;;;;;19.00;42.30;;;15.06;71.03;95486.75;5030092;28;19912;-49
2023/06/07 00:20:45;;;;;;;;;;;19.00;42.40;;;14.95;71.42;95486.16;5030053;28;19928;-50
2023/06/07 00:23:15;;;;;;;;;;;18.90;42.60;;;14.85;72.00;95481.72;5044914;28;19915;-54
2023/06/07 00:25:41;;;;;;;;;;;18.90;42.60;;;14.74;72.77;95483.78;5030182;28;20278;-54
2023/06/07 00:28:06;;;;;;;;;;;18.80;42.70;;;14.73;72.84;95484.09;5046532;28;20284;-51
2023/06/07 00:30:32;;;;;;;;;;;18.70;42.80;;;14.69;72.84;95478.50;5016988;28;19909;-53
2023/06/07 00:32:59;;;;;;;;;;;18.70;42.90;;;14.62;73.41;95482.66;5028737;28;19909;-55
2023/06/07 00:35:24;;;;;;;;;;;18.60;43.00;;;14.56;73.77;95477.38;5029911;28;19960;-49
2023/06/07 00:37:50;;;;;;;;;;;18.60;43.50;;;14.52;74.30;95475.59;5029796;28;19948;-54
2023/06/07 00:40:16;;;;;;;;;;;18.50;43.30;;;14.52;74.18;95475.59;5034458;28;19919;-48
2023/06/07 00:42:42;;;;;;;;;;;18.40;43.40;;;14.50;74.11;95472.34;5033599;28;19909;-53
2023/06/07 00:45:09;;;;;;;;;;;18.40;44.30;;;14.46;74.27;95474.03;5033829;28;19952;-52
2023/06/07 00:47:38;;;;;;;;;;;18.40;43.90;;;14.42;74.56;95470.34;5029329;28;19931;-52
2023/06/07 00:50:05;;;;;;;;;;;18.40;44.10;;;14.41;74.76;95466.84;5021380;28;19909;-50
2023/06/07 00:52:35;;;;;;;;;;;18.30;44.30;;;14.41;74.67;95469.53;5034411;28;19915;-50
2023/06/07 00:55:02;;;;;;;;;;;18.30;44.40;;;14.38;74.90;95469.31;5048543;28;20003;-52
2023/06/07 00:57:32;;;;;;;;;;;18.20;44.40;;;14.36;74.77;95464.28;5034441;28;19913;-51
2023/06/07 01:00:00;;;;;;;;;;;18.20;44.50;;;14.33;75.20;95470.22;5033840;28;19909;-54
2023/06/07 01:02:29;;;;;;;;;;;18.20;44.70;;;14.28;75.35;95473.75;5049280;28;19913;-52
2023/06/07 01:04:57;;;;;;;;;;;18.10;44.70;;;14.26;75.32;95477.81;5048856;28;19916;-53
2023/06/07 01:07:24;;;;;;;;;;;18.10;44.60;;;14.20;75.95;95481.66;5034264;28;19937;-53
2023/06/07 01:09:52;;;;;;;;;;;18.10;44.60;;;14.12;76.36;95481.19;5034297;28;19957;-48
2023/06/07 01:12:19;;;;;;;;;;;18.10;44.60;;;14.09;76.59;95486.34;5022832;28;20360;-51
2023/06/07 01:14:48;;;;;;;;;;;18.00;44.70;;;14.05;76.54;95480.78;5033497;28;20311;-51
2023/06/07 01:17:16;;;;;;;;;;;18.00;44.70;;;13.95;77.19;95486.28;5032912;28;19917;-50
2023/06/07 01:19:51;;;;;;;;;;;17.90;44.80;;;13.86;75.89;95482.63;5033974;28;20386;-53
2023/06/07 01:22:24;;;;;;;;;;;17.80;44.80;;;13.73;76.60;95484.13;5048071;28;20003;-51
2023/06/07 01:24:52;;;;;;;;;;;17.70;44.90;;;13.61;78.20;95481.06;5025849;28;19912;-47
2023/06/07 01:27:21;;;;;;;;;;;17.70;45.30;;;13.50;78.26;95479.56;5028967;28;19917;-49
2023/06/07 01:29:50;;;;;;;;;;;17.60;45.20;;;13.37;79.82;95476.50;5024738;28;20382;-51
2023/06/07 01:32:18;;;;;;;;;;;17.50;45.20;;;13.28;80.21;95480.09;5032490;28;19917;-51
2023/06/07 01:34:45;;;;;;;;;;;17.40;45.30;;;13.15;81.28;95476.97;5048009;28;19952;-50
2023/06/07 01:37:11;;;;;;;;;;;17.30;45.40;;;13.05;82.57;95479.75;5047310;28;19921;-48
2023/06/07 01:39:41;;;;;;;;;;;17.20;45.60;;;12.96;83.39;95476.88;5048939;28;20396;-51
2023/06/07 01:42:12;;;;;;;;;;;17.10;45.80;;;12.89;83.33;95475.63;5048049;28;20038;-49
2023/06/07 01:44:40;;;;;;;;;;;17.00;45.80;;;12.75;85.64;95472.78;5032261;28;19909;-48
2023/06/07 01:47:08;;;;;;;;;;;16.90;46.00;;;12.68;86.01;95467.78;5032459;28;19912;-48
2023/06/07 01:49:34;;;;;;;;;;;16.80;46.10;;;12.64;86.06;95468.63;5032206;28;19959;-48
2023/06/07 01:52:00;;;;;;;;;;;16.80;46.20;;;12.55;86.25;95468.44;5033260;28;19909;-52
2023/06/07 01:54:26;;;;;;;;;;;16.70;46.40;;;12.44;87.20;95464.22;5032286;28;19915;-50
2023/06/07 01:57:03;;;;;;;;;;;16.60;46.50;;;12.27;88.77;95475.31;5028881;28;19949;-52
2023/06/07 02:00:02;;;;;;;;;;;16.50;46.60;;;12.24;89.47;95471.31;5025612;28;19962;-50
2023/06/07 02:02:53;;;;;;;;;;;16.40;46.80;;;12.26;88.02;95466.50;5032671;28;19995;-48
2023/06/07 02:05:37;;;;;;;;;;;16.30;47.00;;;12.24;88.63;95460.63;5029441;28;19947;-48
2023/06/07 02:08:14;;;;;;;;;;;16.30;47.20;;;12.21;88.08;95460.38;5026754;28;19909;-51
2023/06/07 02:10:44;;;;;;;;;;;16.20;47.40;;;12.18;87.88;95463.63;5034138;28;19924;-48
2023/06/07 02:13:12;;;;;;;;;;;16.20;47.50;;;12.11;88.54;95461.25;5027065;28;20060;-51
2023/06/07 02:15:38;;;;;;;;;;;16.10;47.50;;;12.11;88.57;95473.81;5047523;28;19912;-52
2023/06/07 02:18:04;;;;;;;;;;;16.10;47.60;;;12.06;87.72;95468.50;5021614;28;19996;-49
2023/06/07 02:20:34;;;;;;;;;;;16.10;47.70;;;11.98;87.25;95464.53;5032280;28;20003;-51
2023/06/07 02:23:00;;;;;;;;;;;16.00;47.80;;;11.88;87.32;95472.63;5031493;28;19909;-49
2023/06/07 02:25:27;;;;;;;;;;;16.00;47.90;;;11.78;87.54;95474.22;5027319;28;20372;-50
2023/06/07 02:27:53;;;;;;;;;;;15.90;48.00;;;11.70;89.44;95474.78;5028109;28;19923;-50
2023/06/07 02:30:19;;;;;;;;;;;15.90;48.00;;;11.62;90.74;95472.69;5032261;28;19909;-51
2023/06/07 02:32:48;;;;;;;;;;;15.80;48.10;;;11.57;90.58;95473.50;5032586;28;19962;-50
2023/06/07 02:35:16;;;;;;;;;;;15.70;48.20;;;11.47;92.41;95468.22;5028614;28;19917;-47
2023/06/07 02:37:42;;;;;;;;;;;15.70;48.30;;;11.41;94.89;95471.19;5015034;28;20329;-52
2023/06/07 02:40:09;;;;;;;;;;;15.60;48.40;;;11.34;95.10;95471.44;5032491;28;19909;-45
2023/06/07 02:42:36;;;;;;;;;;;15.60;48.60;;;11.28;95.05;95473.34;5018471;28;19934;-47
2023/06/07 02:45:03;;;;;;;;;;;15.50;48.60;;;11.21;95.11;95470.16;5032235;28;19908;-46
2023/06/07 02:47:30;;;;;;;;;;;15.50;48.80;;;11.21;94.16;95470.16;5031617;28;20291;-50
2023/06/07 02:50:00;;;;;;;;;;;15.40;48.90;;;11.19;93.71;95463.50;5032309;28;19931;-46
2023/06/07 02:52:26;;;;;;;;;;;15.30;49.00;;;11.13;93.98;95457.41;5032180;28;20024;-51
2023/06/07 02:54:52;;;;;;;;;;;15.30;49.10;;;11.16;93.56;95466.72;5031107;28;20121;-47
2023/06/07 02:57:17;;;;;;;;;;;15.30;49.20;;;11.16;93.95;95464.84;5031983;28;19913;-48
2023/06/07 02:59:44;;;;;;;;;;;15.20;49.40;;;11.17;93.82;95468.31;5031423;28;19916;-50
2023/06/07 03:02:10;;;;;;;;;;;15.20;49.40;;;11.17;94.03;95466.44;5032105;28;20314;-51
2023/06/07 03:04:38;;;;;;;;;;;15.20;49.50;;;11.16;93.97;95469.38;5031325;28;19997;-49
2023/06/07 03:07:08;;;;;;;;;;;15.20;49.60;;;11.17;94.20;95466.44;5030506;28;20290;-52
2023/06/07 03:09:33;;;;;;;;;;;15.20;49.80;;;11.16;94.01;95475.53;5032084;28;19912;-49
2023/06/07 03:11:59;;;;;;;;;;;15.20;50.40;;;11.14;94.39;95474.97;5023962;28;19915;-49
2023/06/07 03:14:25;;;;;;;;;;;15.20;49.90;;;11.13;93.82;95483.25;5031833;28;20723;-49
2023/06/07 03:16:52;;;;;;;;;;;15.20;49.90;;;11.07;94.25;95480.59;5029845;28;19996;-50
2023/06/07 03:19:18;;;;;;;;;;;15.20;50.00;;;11.01;95.47;95480.88;5031134;22;21301;-47
2023/06/07 03:21:44;;;;;;;;;;;15.20;50.00;;;10.98;95.85;95479.53;5002657;28;19921;-49
2023/06/07 03:24:14;;;;;;;;;;;15.10;50.00;;;10.95;95.78;95485.41;5007250;28;19913;-46
2023/06/07 03:26:40;;;;;;;;;;;15.10;50.10;;;10.89;95.95;95486.47;4994185;28;20285;-49
2023/06/07 03:29:06;;;;;;;;;;;15.00;50.10;;;10.87;96.17;95491.28;4996767;28;19909;-46
2023/06/07 03:31:33;;;;;;;;;;;15.00;50.20;;;10.84;95.44;95483.81;5007228;28;20004;-51
2023/06/07 03:33:58;;;;;;;;;;;15.00;50.30;;;10.77;95.84;95489.41;4993602;28;19932;-47
2023/06/07 03:36:28;;;;;;;;;;;14.90;50.30;;;10.71;96.60;95487.81;5004970;28;19913;-48
2023/06/07 03:38:58;;;;;;;;;;;14.90;50.40;;;10.67;97.57;95488.63;5000017;28;20435;-46
2023/06/07 03:41:25;;;;;;;;;;;14.90;50.50;;;10.67;97.25;95489.44;4997194;28;20379;-47
2023/06/07 03:43:51;;;;;;;;;;;14.80;50.60;;;10.64;97.10;95492.63;4999167;28;19913;-49
2023/06/07 03:46:17;;;;;;;;;;;14.80;50.60;;;10.60;97.53;95503.00;4993214;28;19909;-51
2023/06/07 03:48:43;;;;;;;;;;;14.80;50.70;;;10.57;97.95;95492.91;4995439;28;19909;-46
2023/06/07 03:51:09;;;;;;;;;;;14.80;50.80;;;10.53;98.15;95496.34;4992771;28;20016;-45
2023/06/07 03:53:35;;;;;;;;;;;14.80;50.90;;;10.49;98.40;95493.41;4998231;28;19913;-49
2023/06/07 03:56:01;;;;;;;;;;;14.70;50.90;;;10.51;98.12;95495.81;4998630;28;20298;-47
2023/06/07 03:58:27;;;;;;;;;;;14.80;51.00;;;10.49;97.70;95503.28;5012234;28;19909;-46
2023/06/07 04:00:53;;;;;;;;;;;14.80;51.00;;;10.43;97.85;95507.78;5003299;28;20006;-47
2023/06/07 04:03:27;;;;;;;;;;;14.70;51.00;;;10.39;98.54;95504.84;4992578;28;19909;-47
2023/06/07 04:05:54;;;;;;;;;;;14.70;51.10;;;10.36;100.00;95510.72;5001389;28;19916;-48
2023/06/07 04:08:20;;;;;;;;;;;14.70;51.20;;;10.41;100.00;95504.59;5008390;28;20379;-48
2023/06/07 04:10:46;;;;;;;;;;;14.70;51.30;;;10.49;100.00;95504.06;4997781;28;19963;-46
2023/06/07 04:13:12;;;;;;;;;;;14.70;51.40;;;10.62;100.00;95502.75;5003274;28;19913;-50
2023/06/07 04:15:37;;;;;;;;;;;14.80;51.50;;;10.83;100.00;95500.88;4997626;28;20326;-48
2023/06/07 04:18:03;;;;;;;;;;;14.80;51.60;;;11.03;100.00;95492.06;4993075;28;19952;-48
2023/06/07 04:20:29;;;;;;;;;;;14.90;51.70;;;11.16;99.37;95488.84;4991513;28;20376;-47
2023/06/07 04:22:55;;;;;;;;;;;15.00;51.80;;;11.30;98.74;95497.88;4991752;28;19925;-51
2023/06/07 04:25:31;;;;;;;;;;;15.10;51.80;;;11.46;98.43;95497.81;4996373;28;19913;-47
2023/06/07 04:28:00;;;;;;;;;;;15.20;51.80;;;11.65;97.69;95508.69;4991583;28;20000;-46
2023/06/07 04:30:34;;;;;;;;;;;15.30;51.80;;;11.82;96.40;95499.28;5003675;28;19924;-47
2023/06/07 04:33:12;;;;;;;;;;;15.50;51.80;;;12.03;95.33;95501.88;4991783;28;19909;-46
2023/06/07 04:35:42;;;;;;;;;;;15.60;51.80;;;12.21;94.02;95503.91;4991964;28;19917;-47
2023/06/07 04:38:23;;;;;;;;;;;15.80;51.80;;;12.42;92.20;95495.78;4996740;28;20004;-49
2023/06/07 04:40:50;;;;;;;;;;;16.00;51.80;;;12.66;90.66;95506.53;4994751;28;19966;-48
2023/06/07 04:43:19;;;;;;;;;;;16.20;51.70;;;12.89;89.24;95505.84;4991461;28;19913;-49
2023/06/07 04:45:53;;;;;;;;;;;16.50;51.70;;;13.11;88.75;95504.56;4991898;28;19976;-47
2023/06/07 04:48:27;;;;;;;;;;;16.70;51.60;;;13.34;88.05;95508.38;5003698;28;19908;-47
2023/06/07 04:51:05;;;;;;;;;;;17.00;51.50;;;13.52;86.71;95504.97;5026583;28;19909;-47
2023/06/07 04:53:35;;;;;;;;;;;17.20;51.30;;;13.72;85.92;95497.78;5011905;28;19963;-48
2023/06/07 04:56:03;;;;;;;;;;;17.40;51.10;;;13.92;84.66;95510.16;4997650;28;19921;-47
2023/06/07 04:58:31;;;;;;;;;;;17.70;51.00;;;14.16;84.03;95513.56;4991344;28;19963;-50
2023/06/07 05:00:56;;;;;;;;;;;17.90;50.90;;;14.42;82.49;95510.53;4994039;28;19952;-49
2023/06/07 05:03:24;;;;;;;;;;;18.20;50.70;;;14.63;81.38;95506.47;4991620;28;19944;-47
2023/06/07 05:05:51;;;;;;;;;;;18.40;50.50;;;14.80;80.48;95514.00;4999194;28;20403;-47
2023/06/07 05:08:17;;;;;;;;;;;18.70;50.40;;;15.02;79.91;95505.34;5007189;28;20344;-50
2023/06/07 05:10:45;;;;;;;;;;;18.90;50.20;;;15.20;79.04;95501.81;4990767;28;19909;-51
2023/06/07 05:13:11;;;;;;;;;;;19.10;50.00;;;15.30;79.01;95500.03;5005911;28;19921;-50
2023/06/07 05:15:37;;;;;;;;;;;19.40;49.80;;;15.46;77.44;95493.28;5017626;28;19959;-47
2023/06/07 05:18:03;;;;;;;;;;;19.60;49.60;;;15.64;76.83;95496.97;5003606;28;20397;-48
2023/06/07 05:20:29;;;;;;;;;;;19.80;49.40;;;15.76;75.86;95497.28;5013441;28;19935;-51
2023/06/07 05:22:56;;;;;;;;;;;20.00;49.20;;;15.90;75.09;95489.22;5013720;28;19999;-52
2023/06/07 05:25:22;;;;;;;;;;;20.20;49.10;;;16.07;74.80;95493.97;5014468;28;19909;-47
2023/06/07 05:27:49;;;;;;;;;;;20.40;49.00;;;16.24;73.09;95490.69;5013923;28;19963;-47
2023/06/07 05:30:16;;;;;;;;;;;20.60;48.80;;;16.36;72.69;95494.44;5013322;28;19974;-48
2023/06/07 05:32:42;;;;;;;;;;;20.70;48.60;;;16.54;71.81;95497.25;5014237;28;20351;-49
2023/06/07 05:35:09;;;;;;;;;;;20.90;48.40;;;16.70;71.18;95495.78;5013018;28;19913;-52
2023/06/07 05:37:35;;;;;;;;;;;21.10;48.30;;;16.88;69.98;95494.03;5013601;28;19952;-51
2023/06/07 05:40:01;;;;;;;;;;;21.20;48.00;;;17.04;69.45;95491.78;5014126;28;19940;-47
2023/06/07 05:42:27;;;;;;;;;;;21.40;47.90;;;17.15;69.05;95495.81;5012891;28;20012;-47
2023/06/07 05:44:55;;;;;;;;;;;21.60;47.70;;;17.29;67.92;95488.41;5014302;28;19909;-47
2023/06/07 05:47:20;;;;;;;;;;;21.80;47.50;;;17.44;67.47;95491.81;5011537;28;19921;-47
2023/06/07 05:49:47;;;;;;;;;;;21.90;47.20;;;17.63;66.60;95505.84;5012870;28;19920;-49
2023/06/07 05:52:13;;;;;;;;;;;22.10;47.60;;;17.66;65.94;95505.22;5012621;28;19909;-50
2023/06/07 05:54:47;;;;;;;;;;;22.30;46.80;;;17.80;65.71;95499.78;5012510;28;19937;-48
2023/06/07 05:57:13;;;;;;;;;;;22.50;46.70;;;17.90;64.86;95501.38;5012680;28;19920;-47
2023/06/07 05:59:39;;;;;;;;;;;22.70;46.40;;;18.01;64.08;95495.38;5012116;28;19909;-50
2023/06/07 06:02:07;;;;;;;;;;;22.90;46.10;;;18.16;63.86;95507.63;5013192;28;19909;-49
2023/06/07 06:04:33;;;;;;;;;;;23.00;45.90;;;18.26;63.08;95501.91;5013377;28;19951;-50
2023/06/07 06:07:00;;;;;;;;;;;23.20;45.60;;;18.37;63.08;95513.22;5011006;28;19909;-48
2023/06/07 06:09:26;;;;;;;;;;;23.40;45.40;;;18.50;62.21;95508.78;5013379;28;20039;-49
2023/06/07 06:11:55;;;;;;;;;;;23.50;45.20;;;18.63;61.90;95509.72;5012771;28;19932;-47
2023/06/07 06:14:21;;;;;;;;;;;23.70;45.00;;;18.60;61.60;95513.84;5013326;28;20272;-48
2023/06/07 06:16:48;;;;;;;;;;;23.80;44.70;;;18.57;61.24;95519.88;5011171;28;26901;-49
2023/06/07 06:19:15;;;;;;;;;;;24.00;44.50;;;18.65;60.63;95508.31;5012894;28;20037;-47
2023/06/07 06:21:40;;;;;;;;;;;24.10;44.20;;;18.80;60.59;95517.03;5012584;28;19924;-48
2023/06/07 06:24:07;;;;;;;;;;;24.20;44.00;;;18.91;60.31;95527.22;5024865;28;19912;-47
2023/06/07 06:26:32;;;;;;;;;;;24.40;43.80;;;19.04;60.07;95522.75;5012155;28;19947;-47
2023/06/07 06:28:58;;;;;;;;;;;24.50;43.60;;;19.15;59.79;95518.63;5011523;28;19994;-48
2023/06/07 06:31:27;;;;;;;;;;;24.70;43.50;;;19.26;59.26;95523.66;5011278;28;19909;-49
2023/06/07 06:33:53;;;;;;;;;;;24.80;43.30;;;19.12;59.17;95524.66;5013104;28;19909;-48
2023/06/07 06:36:20;;;;;;;;;;;25.00;43.10;;;19.37;58.84;95524.94;5011550;28;19920;-53
2023/06/07 06:38:46;;;;;;;;;;;25.10;42.90;;;19.34;58.37;95525.56;5012815;28;19920;-48
2023/06/07 06:41:13;;;;;;;;;;;25.20;42.70;;;19.26;58.78;95527.16;5012675;28;19909;-48
2023/06/07 06:43:39;;;;;;;;;;;25.40;42.50;;;19.73;58.05;95534.53;5013125;28;20264;-55
2023/06/07 06:46:05;;;;;;;;;;;25.60;42.40;;;20.07;57.42;95537.06;5012663;28;19913;-51
2023/06/07 06:48:30;;;;;;;;;;;25.70;42.20;;;20.43;55.75;95522.25;5011793;28;19919;-49
2023/06/07 06:50:56;;;;;;;;;;;25.90;42.10;;;20.64;54.68;95527.69;5013171;28;19992;-47
2023/06/07 06:53:22;;;;;;;;;;;26.20;42.00;;;20.88;54.43;95527.00;5011897;28;20287;-48
2023/06/07 06:55:48;;;;;;;;;;;26.40;41.80;;;21.02;53.30;95527.50;5013105;28;19913;-47
2023/06/07 06:58:14;;;;;;;;;;;26.60;41.50;;;21.22;52.86;95522.41;5012718;28;19909;-52
2023/06/07 07:00:41;;;;;;;;;;;26.90;41.30;;;21.35;52.23;95529.47;5011809;28;19924;-47
2023/06/07 07:03:06;;;;;;;;;;;27.00;40.90;;;21.48;52.33;95533.78;5012385;28;19924;-47
2023/06/07 07:05:32;;;;;;;;;;;27.20;40.70;;;21.70;50.71;95527.16;5011541;28;19912;-51
2023/06/07 07:07:58;;;;;;;;;;;27.40;40.50;;;21.70;50.95;95527.16;5011990;28;19916;-47
2023/06/07 07:10:24;;;;;;;;;;;27.50;40.20;;;21.76;51.08;95533.16;5012568;28;19913;-51
2023/06/07 07:12:50;;;;;;;;;;;27.70;40.00;;;21.74;50.89;95530.00;5011398;28;20087;-52
2023/06/07 07:15:16;;;;;;;;;;;27.80;39.60;;;21.94;50.99;95529.13;5012085;28;20268;-51
2023/06/07 07:17:47;;;;;;;;;;;27.90;39.30;;;22.13;50.33;95533.97;5010638;28;19920;-48
2023/06/07 07:20:14;;;;;;;;;;;28.10;39.20;;;22.24;50.13;95533.53;5012016;28;19917;-49
2023/06/07 07:22:41;;;;;;;;;;;28.20;39.10;;;22.48;49.05;95536.25;5012182;28;19909;-49
2023/06/07 07:25:09;;;;;;;;;;;28.40;39.00;;;22.75;49.04;95529.28;5011368;28;19936;-48
2023/06/07 07:27:34;;;;;;;;;;;28.60;38.80;;;22.99;47.46;95539.28;5026507;28;19916;-51
2023/06/07 07:30:01;;;;;;;;;;;28.80;38.70;;;23.04;47.63;95538.28;5010868;28;19913;-49
2023/06/07 07:32:27;;;;;;;;;;;28.90;38.40;;;23.28;47.52;95537.38;5012215;28;19909;-49
2023/06/07 07:34:52;;;;;;;;;;;29.20;38.20;;;23.34;46.86;95538.69;5011539;28;19909;-48
2023/06/07 07:37:19;;;;;;;;;;;29.40;38.00;;;23.53;46.09;95532.59;5011494;28;20003;-50
2023/06/07 07:39:45;;;;;;;;;;;29.40;37.70;;;;;;5011807;28;19916;-54
2023/06/07 07:42:12;;;;;;;;;;;29.60;37.40;;;22.84;47.44;95526.41;5009757;28;19913;-50
2023/06/07 07:44:38;;;;;;;;;;;29.70;37.20;;;23.18;46.72;95521.56;5012001;28;19909;-48
2023/06/07 07:47:07;;;;;;;;;;;29.80;37.00;;;23.60;46.49;95518.41;5010626;28;19916;-51
2023/06/07 07:49:33;;;;;;;;;;;29.90;37.00;;;23.79;44.92;95523.97;5011862;28;19915;-49
2023/06/07 07:51:58;;;;;;;;;;;30.00;36.70;;;23.67;45.16;95524.03;5011749;28;19999;-50
2023/06/07 07:54:25;;;;;;;;;;;30.10;36.50;;;23.58;45.70;95523.41;5010709;28;20355;-50
2023/06/07 07:56:51;;;;;;;;;;;30.20;36.30;;;23.78;45.26;95527.81;5010953;28;19917;-52
2023/06/07 07:59:17;;;;;;;;;;;30.30;36.10;;;23.95;44.99;95522.03;5010728;28;20294;-54
2023/06/07 08:01:42;;;;;;;;;;;30.40;36.00;;;24.06;44.84;95522.28;5011498;28;20276;-51
2023/06/07 08:04:08;;;;;;;;;;;30.50;35.80;;;23.22;45.36;95509.69;5011712;28;19963;-53
2023/06/07 08:06:35;;;;;;;;;;;30.60;36.20;;;23.65;45.54;95521.66;5010092;28;19909;-53
2023/06/07 08:09:02;;;;;;;;;;;30.60;35.30;;;24.11;43.84;95524.75;5011327;28;19955;-57
2023/06/07 08:11:28;;;;;;;;;;;30.70;35.30;;;23.55;46.16;95527.59;5010175;28;19916;-54
2023/06/07 08:13:54;;;;;;;;;;;30.80;35.00;;;23.65;45.48;95521.66;5011506;28;19909;-52
2023/06/07 08:16:19;;;;;;;;;;;30.80;34.90;;;23.67;44.53;95521.31;4998396;28;20394;-55
2023/06/07 08:18:49;;;;;;;;;;;30.90;34.90;;;23.56;44.37;95523.75;5010280;28;19913;-54
2023/06/07 08:21:15;;;;;;;;;;;31.00;34.70;;;23.55;45.39;95528.41;5011368;28;20344;-53
2023/06/07 08:23:44;;;;;;;;;;;31.00;34.50;;;23.96;45.13;95517.41;5010451;28;19913;-52
2023/06/07 08:26:10;;;;;;;;;;;31.10;34.50;;;24.29;43.96;95517.00;5010824;28;20020;-54
2023/06/07 08:28:36;;;;;;;;;;;31.20;34.30;;;24.70;43.18;95514.81;5011166;28;20003;-51
2023/06/07 08:31:03;;;;;;;;;;;31.30;34.20;;;24.54;41.99;95514.88;5010432;28;19966;-49
2023/06/07 08:33:30;;;;;;;;;;;31.40;34.20;;;24.92;42.26;95516.06;5011259;28;20330;-54
2023/06/07 08:35:55;;;;;;;;;;;31.60;34.10;;;25.29;42.06;95516.44;5009928;28;19913;-52
2023/06/07 08:38:21;;;;;;;;;;;31.70;33.80;;;25.30;40.55;95514.50;5011267;28;19934;-50
2023/06/07 08:40:47;;;;;;;;;;;31.90;33.60;;;25.45;40.57;95510.88;5010241;28;19913;-56
2023/06/07 08:43:12;;;;;;;;;;;32.00;33.30;;;25.64;39.26;95514.72;5011385;28;19979;-54
2023/06/07 08:45:39;;;;;;;;;;;32.20;33.20;;;25.91;39.23;95512.84;5011460;28;20363;-51
2023/06/07 08:48:12;;;;;;;;;;;32.40;33.10;;;26.01;38.40;95520.41;5009754;28;19909;-49
2023/06/07 08:50:39;;;;;;;;;;;32.60;32.90;;;26.37;37.72;95516.31;5011256;28;20020;-51
2023/06/07 08:53:14;;;;;;;;;;;32.80;32.60;;;25.95;37.85;95517.22;5009617;28;20000;-49
2023/06/07 08:55:42;;;;;;;;;;;33.00;32.40;;;26.20;38.06;95514.09;5013934;28;20122;-49
2023/06/07 08:58:08;;;;;;;;;;;33.10;32.20;;;26.50;38.13;95517.69;4997390;28;20433;-52
2023/06/07 09:00:35;;;;;;;;;;;33.20;31.90;;;26.27;37.64;95517.72;5028985;28;19916;-52
2023/06/07 09:03:02;;;;;;;;;;;33.30;31.80;;;25.46;38.89;95514.41;5013473;28;20342;-51
2023/06/07 09:05:28;;;;;;;;;;;33.40;31.50;;;26.07;39.11;95513.50;5013548;28;19909;-54
2023/06/07 09:07:53;;;;;;;;;;;33.50;31.50;;;26.48;38.53;95508.25;5014391;28;19912;-51
2023/06/07 09:10:20;;;;;;;;;;;33.50;31.20;;;26.88;37.63;95515.06;5014868;28;19916;-51
2023/06/07 09:12:50;;;;;;;;;;;33.60;31.10;;;26.42;36.45;95516.00;5013525;28;20016;-52
2023/06/07 09:15:21;;;;;;;;;;;33.70;31.00;;;27.00;36.48;95512.88;5013535;28;19912;-52
2023/06/07 09:18:01;;;;;;;;;;;33.90;31.00;;;27.24;36.19;95513.59;5012906;28;19916;-54
2023/06/07 09:20:33;;;;;;;;;;;34.00;30.80;;;26.61;32.99;95515.13;5020605;22;20026;-47
2023/06/07 09:23:09;;;;;;;;;;;34.10;31.20;;;26.94;35.21;95508.13;5012981;28;19917;-46
2023/06/07 09:25:37;;;;;;;;;;;34.20;30.40;;;27.13;35.92;95518.09;5014692;28;19909;-49
2023/06/07 09:28:09;;;;;;;;;;;34.30;30.20;;;27.66;34.94;95515.19;5015314;28;19944;-48
2023/06/07 09:30:35;;;;;;;;;;;34.50;30.10;;;27.62;34.14;95508.91;5003859;28;19909;-46
2023/06/07 09:33:00;;;;;;;;;;;34.50;29.90;;;27.90;31.72;95509.19;4995594;28;19910;-46
2023/06/07 09:35:26;;;;;;;;;;;34.60;29.70;;;27.82;32.53;95507.53;4994630;28;19909;-49
2023/06/07 09:37:54;;;;;;;;;;;34.70;29.50;;;27.92;32.77;95508.78;4992800;28;19921;-49
2023/06/07 09:40:22;;;;;;;;;;;34.80;29.40;;;27.97;32.31;95499.47;4976439;28;20443;-48
2023/06/07 09:42:59;;;;;;;;;;;34.90;29.30;;;28.42;32.33;95514.66;4989745;28;19909;-52
2023/06/07 09:45:26;;;;;;;;;;;35.00;29.20;;;28.46;32.74;95507.28;4988359;28;20380;-51
2023/06/07 09:48:09;;;;;;;;;;;35.10;29.00;;;29.01;32.92;95503.66;4982535;28;19964;-48
2023/06/07 09:50:35;;;;;;;;;;;35.20;28.90;;;29.09;32.38;95505.28;4976151;28;19910;-49
2023/06/07 09:53:01;;;;;;;;;;;35.30;28.80;;;29.14;30.41;95507.63;4975079;28;19957;-47
2023/06/07 09:55:28;;;;;;;;;;;35.50;28.70;;;29.07;30.72;95507.59;4979344;28;19916;-50
2023/06/07 09:57:57;;;;;;;;;;;35.50;28.30;;;28.60;30.36;95503.84;4975446;28;19914;-46
2023/06/07 10:00:26;;;;;;;;;;;35.50;28.20;;;28.68;31.10;95502.72;4976805;28;20303;-48
2023/06/07 10:02:51;;;;;;;;;;;35.60;28.10;;;28.55;31.80;95501.44;4987696;28;19917;-48
2023/06/07 10:05:21;;;;;;;;;;;35.60;28.00;;;28.77;31.66;95503.16;4990344;28;19916;-46
2023/06/07 10:07:49;;;;;;;;;;;35.60;28.00;;;29.11;31.52;95499.38;4976439;28;19910;-53
2023/06/07 10:10:19;;;;;;;;;;;35.80;28.00;;;29.54;30.43;95494.03;4975029;28;19925;-46
2023/06/07 10:12:48;;;;;;;;;;;35.90;28.00;;;29.29;29.23;95490.06;4990165;28;20055;-46
2023/06/07 10:15:25;;;;;;;;;;;36.00;27.80;;;29.31;29.71;95489.69;4977936;28;19913;-50
2023/06/07 10:18:17;;;;;;;;;;;36.10;27.60;;;29.29;30.06;95490.06;4980076;28;19928;-50
2023/06/07 10:21:08;;;;;;;;;;;36.20;27.50;;;29.22;30.84;95487.28;5005862;28;19918;-46
2023/06/07 10:23:55;;;;;;;;;;;36.30;27.40;;;28.97;31.31;95491.88;4977810;28;20415;-46
2023/06/07 10:26:27;;;;;;;;;;;36.30;27.20;;;29.34;30.40;95494.38;4980634;28;20387;-48
2023/06/07 10:29:09;;;;;;;;;;;36.40;27.20;;;28.96;29.11;95490.31;4974222;28;19924;-49
2023/06/07 10:31:59;;;;;;;;;;;36.50;27.30;;;29.03;28.35;95495.84;4990642;28;19916;-45
2023/06/07 10:34:28;;;;;;;;;;;36.50;27.10;;;29.53;29.20;95487.75;4985888;28;20381;-47
2023/06/07 10:36:58;;;;;;;;;;;36.60;27.00;;;29.88;27.34;95489.78;4974608;28;19929;-47
2023/06/07 10:39:24;;;;;;;;;;;36.70;26.80;;;30.07;26.66;95498.81;4999294;28;19959;-46
2023/06/07 10:41:52;;;;;;;;;;;36.90;26.80;;;30.17;26.56;95501.53;4974646;28;19909;-48
2023/06/07 10:44:17;;;;;;;;;;;37.00;26.60;;;30.49;26.33;95491.72;4974637;28;19964;-48
2023/06/07 10:46:43;;;;;;;;;;;37.10;26.40;;;30.60;26.54;95489.75;4974621;28;20320;-49
2023/06/07 10:49:36;;;;;;;;;;;37.30;26.30;;;30.39;26.28;95491.34;4988073;28;20049;-47
2023/06/07 10:52:04;;;;;;;;;;;37.40;26.10;;;30.06;27.15;95492.53;4980501;28;20004;-46
2023/06/07 10:54:32;;;;;;;;;;;37.50;26.00;;;30.51;26.45;95487.41;4987773;28;19910;-50
2023/06/07 10:57:02;;;;;;;;;;;37.60;26.00;;;31.13;25.36;95486.03;4983325;28;19920;-51
2023/06/07 10:59:29;;;;;;;;;;;37.80;26.00;;;31.68;24.85;95481.81;5006205;28;19909;-50
2023/06/07 11:02:20;;;;;;;;;;;38.10;25.80;;;31.25;25.30;95482.84;4993724;28;19909;-52
2023/06/07 11:04:57;;;;;;;;;;;38.30;25.70;;;30.94;26.54;95484.56;4982796;28;19909;-49
2023/06/07 11:07:31;;;;;;;;;;;38.50;25.50;;;31.11;26.15;95478.19;4990495;28;20008;-48
2023/06/07 11:10:00;;;;;;;;;;;38.50;25.30;;;31.33;25.81;95478.06;4988100;28;19910;-50
2023/06/07 11:12:35;;;;;;;;;;;38.50;25.30;;;31.02;25.71;95479.78;4993184;28;20336;-51
2023/06/07 11:15:21;;;;;;;;;;;38.60;24.90;;;31.84;24.70;95484.06;4986678;28;19920;-47
2023/06/07 11:18:08;;;;;;;;;;;38.60;24.90;;;31.27;25.58;95466.69;4982739;28;19913;-49
2023/06/07 11:20:36;;;;;;;;;;;38.80;24.80;;;31.52;24.59;95469.34;4993184;28;19917;-49
2023/06/07 11:23:24;;;;;;;;;;;38.80;24.80;;;31.01;25.20;95473.53;4991802;28;19913;-47